sensor_id;sensor_type;location;lat;lon;timestamp;P1;durP1;ratioP1;P2;durP2;ratioP2
48727;SDS011;34527;45.618;5.130;2022-09-13T00:00:32;6.70;;;4.30;;
48727;SDS011;34527;45.618;5.130;2022-09-13T00:02:58;5.97;;;4.15;;
48727;SDS011;34527;45.618;5.130;2022-09-13T00:05:24;7.10;;;4.38;;
48727;SDS011;34527;45.618;5.130;2022-09-13T00:07:51;4.95;;;4.18;;
48727;SDS011;34527;45.618;5.130;2022-09-13T00:10:18;5.30;;;4.00;;
48727;SDS011;34527;45.618;5.130;2022-09-13T00:12:44;5.70;;;3.97;;
48727;SDS011;34527;45.618;5.130;2022-09-13T00:15:11;4.93;;;4.00;;
48727;SDS011;34527;45.618;5.130;2022-09-13T00:17:37;4.35;;;3.95;;
48727;SDS011;34527;45.618;5.130;2022-09-13T00:20:03;5.03;;;4.45;;
48727;SDS011;34527;45.618;5.130;2022-09-13T00:22:29;8.23;;;4.43;;
48727;SDS011;34527;45.618;5.130;2022-09-13T00:24:55;4.65;;;4.25;;
48727;SDS011;34527;45.618;5.130;2022-09-13T00:27:21;10.68;;;4.30;;
48727;SDS011;34527;45.618;5.130;2022-09-13T00:29:47;5.50;;;4.68;;
48727;SDS011;34527;45.618;5.130;2022-09-13T00:32:13;8.25;;;4.53;;
48727;SDS011;34527;45.618;5.130;2022-09-13T00:34:38;5.85;;;4.70;;
48727;SDS011;34527;45.618;5.130;2022-09-13T00:37:04;5.68;;;4.75;;
48727;SDS011;34527;45.618;5.130;2022-09-13T00:39:30;5.10;;;4.47;;
48727;SDS011;34527;45.618;5.130;2022-09-13T00:41:57;5.43;;;4.68;;
48727;SDS011;34527;45.618;5.130;2022-09-13T00:50:38;7.85;;;5.40;;
48727;SDS011;34527;45.618;5.130;2022-09-13T00:53:10;6.78;;;5.68;;
48727;SDS011;34527;45.618;5.130;2022-09-13T00:55:42;7.80;;;6.20;;
48727;SDS011;34527;45.618;5.130;2022-09-13T00:58:17;7.93;;;5.68;;
48727;SDS011;34527;45.618;5.130;2022-09-13T01:00:48;5.78;;;5.13;;
48727;SDS011;34527;45.618;5.130;2022-09-13T01:03:15;6.10;;;5.55;;
48727;SDS011;34527;45.618;5.130;2022-09-13T01:05:45;7.95;;;6.40;;
48727;SDS011;34527;45.618;5.130;2022-09-13T01:08:16;8.00;;;6.15;;
48727;SDS011;34527;45.618;5.130;2022-09-13T01:10:50;8.98;;;6.00;;
48727;SDS011;34527;45.618;5.130;2022-09-13T01:13:18;10.32;;;5.90;;
48727;SDS011;34527;45.618;5.130;2022-09-13T01:15:47;6.70;;;6.05;;
48727;SDS011;34527;45.618;5.130;2022-09-13T01:18:13;7.53;;;6.10;;
48727;SDS011;34527;45.618;5.130;2022-09-13T01:40:34;19.17;;;13.98;;
48727;SDS011;34527;45.618;5.130;2022-09-13T01:56:38;10.40;;;9.00;;
48727;SDS011;34527;45.618;5.130;2022-09-13T02:02:14;10.35;;;8.45;;
48727;SDS011;34527;45.618;5.130;2022-09-13T02:04:49;10.43;;;7.55;;
48727;SDS011;34527;45.618;5.130;2022-09-13T02:07:26;8.05;;;6.13;;
48727;SDS011;34527;45.618;5.130;2022-09-13T02:09:59;11.32;;;7.38;;
48727;SDS011;34527;45.618;5.130;2022-09-13T02:12:31;9.02;;;7.22;;
48727;SDS011;34527;45.618;5.130;2022-09-13T02:15:06;7.15;;;6.50;;
48727;SDS011;34527;45.618;5.130;2022-09-13T02:17:37;11.57;;;6.45;;
48727;SDS011;34527;45.618;5.130;2022-09-13T02:20:14;8.60;;;6.40;;
48727;SDS011;34527;45.618;5.130;2022-09-13T02:23:03;6.97;;;6.28;;
48727;SDS011;34527;45.618;5.130;2022-09-13T02:25:38;6.25;;;5.65;;
48727;SDS011;34527;45.618;5.130;2022-09-13T02:28:06;7.20;;;5.90;;
48727;SDS011;34527;45.618;5.130;2022-09-13T02:30:36;8.30;;;6.50;;
48727;SDS011;34527;45.618;5.130;2022-09-13T02:33:12;6.88;;;6.15;;
48727;SDS011;34527;45.618;5.130;2022-09-13T02:35:58;9.50;;;5.95;;
48727;SDS011;34527;45.618;5.130;2022-09-13T02:38:31;9.02;;;6.20;;
48727;SDS011;34527;45.618;5.130;2022-09-13T02:41:06;7.60;;;5.60;;
48727;SDS011;34527;45.618;5.130;2022-09-13T02:43:40;8.50;;;6.05;;
48727;SDS011;34527;45.618;5.130;2022-09-13T02:46:15;6.18;;;5.38;;
48727;SDS011;34527;45.618;5.130;2022-09-13T02:49:14;7.13;;;5.50;;
48727;SDS011;34527;45.618;5.130;2022-09-13T02:54:37;6.90;;;5.63;;
48727;SDS011;34527;45.618;5.130;2022-09-13T02:57:10;6.97;;;5.38;;
48727;SDS011;34527;45.618;5.130;2022-09-13T02:59:59;7.05;;;5.22;;
48727;SDS011;34527;45.618;5.130;2022-09-13T03:02:26;6.43;;;4.85;;
48727;SDS011;34527;45.618;5.130;2022-09-13T03:04:57;6.75;;;5.32;;
48727;SDS011;34527;45.618;5.130;2022-09-13T03:07:24;6.65;;;5.63;;
48727;SDS011;34527;45.618;5.130;2022-09-13T03:09:52;6.32;;;4.97;;
48727;SDS011;34527;45.618;5.130;2022-09-13T03:14:55;5.65;;;4.85;;
48727;SDS011;34527;45.618;5.130;2022-09-13T03:17:40;8.88;;;5.72;;
48727;SDS011;34527;45.618;5.130;2022-09-13T03:29:00;7.53;;;5.40;;
48727;SDS011;34527;45.618;5.130;2022-09-13T03:31:43;7.78;;;5.35;;
48727;SDS011;34527;45.618;5.130;2022-09-13T03:36:54;6.93;;;5.20;;
48727;SDS011;34527;45.618;5.130;2022-09-13T03:39:46;7.55;;;5.90;;
48727;SDS011;34527;45.618;5.130;2022-09-13T03:43:18;7.57;;;5.68;;
48727;SDS011;34527;45.618;5.130;2022-09-13T03:45:15;7.00;;;5.70;;
48727;SDS011;34527;45.618;5.130;2022-09-13T03:47:44;8.00;;;6.45;;
48727;SDS011;34527;45.618;5.130;2022-09-13T03:50:15;7.03;;;5.80;;
48727;SDS011;34527;45.618;5.130;2022-09-13T03:52:44;5.90;;;5.40;;
48727;SDS011;34527;45.618;5.130;2022-09-13T03:55:16;9.75;;;5.60;;
48727;SDS011;34527;45.618;5.130;2022-09-13T03:57:44;6.07;;;5.45;;
48727;SDS011;34527;45.618;5.130;2022-09-13T04:00:11;8.88;;;5.60;;
48727;SDS011;34527;45.618;5.130;2022-09-13T04:02:39;6.28;;;5.65;;
48727;SDS011;34527;45.618;5.130;2022-09-13T04:05:05;8.18;;;6.05;;
48727;SDS011;34527;45.618;5.130;2022-09-13T04:07:31;6.18;;;5.40;;
48727;SDS011;34527;45.618;5.130;2022-09-13T04:09:57;8.10;;;5.70;;
48727;SDS011;34527;45.618;5.130;2022-09-13T04:12:23;6.72;;;6.05;;
48727;SDS011;34527;45.618;5.130;2022-09-13T04:14:51;6.60;;;5.95;;
48727;SDS011;34527;45.618;5.130;2022-09-13T04:17:16;6.30;;;5.70;;
48727;SDS011;34527;45.618;5.130;2022-09-13T04:19:43;7.32;;;6.18;;
48727;SDS011;34527;45.618;5.130;2022-09-13T04:22:11;8.23;;;6.00;;
48727;SDS011;34527;45.618;5.130;2022-09-13T04:24:37;7.00;;;5.88;;
48727;SDS011;34527;45.618;5.130;2022-09-13T04:27:04;6.78;;;6.18;;
48727;SDS011;34527;45.618;5.130;2022-09-13T04:29:31;6.80;;;5.93;;
48727;SDS011;34527;45.618;5.130;2022-09-13T04:31:57;7.45;;;6.55;;
48727;SDS011;34527;45.618;5.130;2022-09-13T04:34:24;7.30;;;6.60;;
48727;SDS011;34527;45.618;5.130;2022-09-13T04:36:50;9.57;;;7.03;;
48727;SDS011;34527;45.618;5.130;2022-09-13T04:39:17;7.72;;;7.00;;
48727;SDS011;34527;45.618;5.130;2022-09-13T04:41:44;7.10;;;6.40;;
48727;SDS011;34527;45.618;5.130;2022-09-13T04:44:12;7.55;;;6.78;;
48727;SDS011;34527;45.618;5.130;2022-09-13T04:46:41;11.25;;;7.35;;
48727;SDS011;34527;45.618;5.130;2022-09-13T04:49:10;7.25;;;6.35;;
48727;SDS011;34527;45.618;5.130;2022-09-13T04:51:36;8.93;;;6.50;;
48727;SDS011;34527;45.618;5.130;2022-09-13T04:54:02;8.50;;;6.63;;
48727;SDS011;34527;45.618;5.130;2022-09-13T04:56:29;9.73;;;6.53;;
48727;SDS011;34527;45.618;5.130;2022-09-13T04:58:55;8.38;;;6.18;;
48727;SDS011;34527;45.618;5.130;2022-09-13T05:01:22;8.18;;;6.10;;
48727;SDS011;34527;45.618;5.130;2022-09-13T05:03:49;11.13;;;6.75;;
48727;SDS011;34527;45.618;5.130;2022-09-13T05:06:17;8.85;;;6.22;;
48727;SDS011;34527;45.618;5.130;2022-09-13T05:08:44;8.77;;;6.10;;
48727;SDS011;34527;45.618;5.130;2022-09-13T05:11:14;7.40;;;6.22;;
48727;SDS011;34527;45.618;5.130;2022-09-13T05:13:40;7.50;;;6.25;;
48727;SDS011;34527;45.618;5.130;2022-09-13T05:16:06;8.63;;;6.80;;
48727;SDS011;34527;45.618;5.130;2022-09-13T05:18:33;8.73;;;6.47;;
48727;SDS011;34527;45.618;5.130;2022-09-13T05:21:00;7.80;;;6.20;;
48727;SDS011;34527;45.618;5.130;2022-09-13T05:23:29;9.65;;;7.00;;
48727;SDS011;34527;45.618;5.130;2022-09-13T05:25:56;8.38;;;6.90;;
48727;SDS011;34527;45.618;5.130;2022-09-13T05:28:24;6.90;;;6.35;;
48727;SDS011;34527;45.618;5.130;2022-09-13T05:33:26;9.68;;;7.13;;
48727;SDS011;34527;45.618;5.130;2022-09-13T05:35:53;7.35;;;6.20;;
48727;SDS011;34527;45.618;5.130;2022-09-13T05:38:20;8.07;;;6.57;;
48727;SDS011;34527;45.618;5.130;2022-09-13T05:40:47;8.35;;;6.75;;
48727;SDS011;34527;45.618;5.130;2022-09-13T05:43:17;8.50;;;6.63;;
48727;SDS011;34527;45.618;5.130;2022-09-13T05:45:43;6.82;;;6.13;;
48727;SDS011;34527;45.618;5.130;2022-09-13T05:48:09;9.15;;;6.55;;
48727;SDS011;34527;45.618;5.130;2022-09-13T05:50:37;7.18;;;6.38;;
48727;SDS011;34527;45.618;5.130;2022-09-13T05:53:03;7.32;;;6.10;;
48727;SDS011;34527;45.618;5.130;2022-09-13T05:55:30;8.40;;;6.07;;
48727;SDS011;34527;45.618;5.130;2022-09-13T05:57:56;7.45;;;6.43;;
48727;SDS011;34527;45.618;5.130;2022-09-13T06:00:22;7.00;;;6.03;;
48727;SDS011;34527;45.618;5.130;2022-09-13T06:02:48;8.88;;;6.28;;
48727;SDS011;34527;45.618;5.130;2022-09-13T06:05:14;7.15;;;6.18;;
48727;SDS011;34527;45.618;5.130;2022-09-13T06:07:40;6.43;;;5.82;;
48727;SDS011;34527;45.618;5.130;2022-09-13T06:10:07;8.25;;;5.93;;
48727;SDS011;34527;45.618;5.130;2022-09-13T06:12:34;7.47;;;6.40;;
48727;SDS011;34527;45.618;5.130;2022-09-13T06:15:00;6.70;;;6.00;;
48727;SDS011;34527;45.618;5.130;2022-09-13T06:17:26;6.50;;;5.93;;
48727;SDS011;34527;45.618;5.130;2022-09-13T06:19:52;8.23;;;6.13;;
48727;SDS011;34527;45.618;5.130;2022-09-13T06:22:21;8.38;;;6.00;;
48727;SDS011;34527;45.618;5.130;2022-09-13T06:24:47;7.07;;;6.07;;
48727;SDS011;34527;45.618;5.130;2022-09-13T06:27:13;9.60;;;6.05;;
48727;SDS011;34527;45.618;5.130;2022-09-13T06:29:39;8.73;;;6.10;;
48727;SDS011;34527;45.618;5.130;2022-09-13T06:32:05;7.60;;;5.82;;
48727;SDS011;34527;45.618;5.130;2022-09-13T06:34:31;6.30;;;5.70;;
48727;SDS011;34527;45.618;5.130;2022-09-13T06:36:57;8.10;;;6.10;;
48727;SDS011;34527;45.618;5.130;2022-09-13T06:39:23;8.50;;;5.80;;
48727;SDS011;34527;45.618;5.130;2022-09-13T06:41:49;8.63;;;5.95;;
48727;SDS011;34527;45.618;5.130;2022-09-13T06:44:15;6.82;;;5.93;;
48727;SDS011;34527;45.618;5.130;2022-09-13T06:46:41;9.50;;;5.70;;
48727;SDS011;34527;45.618;5.130;2022-09-13T06:49:08;6.68;;;6.18;;
48727;SDS011;34527;45.618;5.130;2022-09-13T06:51:35;8.00;;;5.88;;
48727;SDS011;34527;45.618;5.130;2022-09-13T06:54:01;5.57;;;5.00;;
48727;SDS011;34527;45.618;5.130;2022-09-13T06:56:31;7.70;;;5.47;;
48727;SDS011;34527;45.618;5.130;2022-09-13T06:59:05;7.38;;;5.35;;
48727;SDS011;34527;45.618;5.130;2022-09-13T07:01:41;5.95;;;5.00;;
48727;SDS011;34527;45.618;5.130;2022-09-13T07:04:15;6.55;;;5.03;;
48727;SDS011;34527;45.618;5.130;2022-09-13T07:06:46;8.90;;;5.30;;
48727;SDS011;34527;45.618;5.130;2022-09-13T07:09:15;5.25;;;4.75;;
48727;SDS011;34527;45.618;5.130;2022-09-13T07:11:44;6.80;;;4.55;;
48727;SDS011;34527;45.618;5.130;2022-09-13T07:14:16;5.00;;;4.60;;
48727;SDS011;34527;45.618;5.130;2022-09-13T07:16:49;5.65;;;4.30;;
48727;SDS011;34527;45.618;5.130;2022-09-13T07:19:22;5.63;;;4.82;;
48727;SDS011;34527;45.618;5.130;2022-09-13T07:21:53;4.72;;;4.32;;
48727;SDS011;34527;45.618;5.130;2022-09-13T07:24:22;4.80;;;4.38;;
48727;SDS011;34527;45.618;5.130;2022-09-13T07:26:48;5.72;;;4.40;;
48727;SDS011;34527;45.618;5.130;2022-09-13T07:29:16;5.15;;;3.75;;
48727;SDS011;34527;45.618;5.130;2022-09-13T07:31:45;5.22;;;4.10;;
48727;SDS011;34527;45.618;5.130;2022-09-13T07:34:14;6.03;;;4.10;;
48727;SDS011;34527;45.618;5.130;2022-09-13T07:36:42;5.97;;;3.78;;
48727;SDS011;34527;45.618;5.130;2022-09-13T07:39:10;5.50;;;3.40;;
48727;SDS011;34527;45.618;5.130;2022-09-13T07:41:37;4.40;;;3.08;;
48727;SDS011;34527;45.618;5.130;2022-09-13T07:44:04;4.60;;;3.55;;
48727;SDS011;34527;45.618;5.130;2022-09-13T07:46:33;4.28;;;3.47;;
48727;SDS011;34527;45.618;5.130;2022-09-13T07:49:06;4.65;;;3.20;;
48727;SDS011;34527;45.618;5.130;2022-09-13T07:51:35;5.82;;;3.38;;
48727;SDS011;34527;45.618;5.130;2022-09-13T07:54:04;5.47;;;3.58;;
48727;SDS011;34527;45.618;5.130;2022-09-13T07:56:35;4.50;;;2.95;;
48727;SDS011;34527;45.618;5.130;2022-09-13T07:59:03;3.80;;;3.00;;
48727;SDS011;34527;45.618;5.130;2022-09-13T08:01:35;6.32;;;3.42;;
48727;SDS011;34527;45.618;5.130;2022-09-13T08:06:33;4.07;;;3.03;;
48727;SDS011;34527;45.618;5.130;2022-09-13T08:09:03;5.15;;;3.13;;
48727;SDS011;34527;45.618;5.130;2022-09-13T08:11:36;3.30;;;2.92;;
48727;SDS011;34527;45.618;5.130;2022-09-13T08:16:34;5.28;;;2.90;;
48727;SDS011;34527;45.618;5.130;2022-09-13T08:19:00;3.08;;;2.88;;
48727;SDS011;34527;45.618;5.130;2022-09-13T08:21:32;4.70;;;3.05;;
48727;SDS011;34527;45.618;5.130;2022-09-13T08:24:00;3.22;;;2.72;;
48727;SDS011;34527;45.618;5.130;2022-09-13T08:26:27;3.88;;;2.50;;
48727;SDS011;34527;45.618;5.130;2022-09-13T08:29:01;5.97;;;2.90;;
48727;SDS011;34527;45.618;5.130;2022-09-13T08:31:28;2.60;;;2.40;;
48727;SDS011;34527;45.618;5.130;2022-09-13T08:33:55;4.30;;;2.90;;
48727;SDS011;34527;45.618;5.130;2022-09-13T08:36:22;4.15;;;2.63;;
48727;SDS011;34527;45.618;5.130;2022-09-13T08:38:52;2.95;;;2.40;;
48727;SDS011;34527;45.618;5.130;2022-09-13T08:46:40;5.22;;;2.38;;
48727;SDS011;34527;45.618;5.130;2022-09-13T08:49:14;5.45;;;2.60;;
48727;SDS011;34527;45.618;5.130;2022-09-13T08:51:48;2.60;;;2.38;;
48727;SDS011;34527;45.618;5.130;2022-09-13T08:54:17;4.80;;;2.40;;
48727;SDS011;34527;45.618;5.130;2022-09-13T08:57:08;3.78;;;2.40;;
48727;SDS011;34527;45.618;5.130;2022-09-13T09:05:16;3.22;;;2.30;;
48727;SDS011;34527;45.618;5.130;2022-09-13T09:07:48;2.85;;;2.15;;
48727;SDS011;34527;45.618;5.130;2022-09-13T09:10:21;2.50;;;2.30;;
48727;SDS011;34527;45.618;5.130;2022-09-13T09:13:41;3.78;;;2.20;;
48727;SDS011;34527;45.618;5.130;2022-09-13T09:15:53;2.63;;;2.00;;
48727;SDS011;34527;45.618;5.130;2022-09-13T09:18:32;6.55;;;2.75;;
48727;SDS011;34527;45.618;5.130;2022-09-13T09:21:02;4.45;;;2.00;;
48727;SDS011;34527;45.618;5.130;2022-09-13T09:23:30;2.22;;;2.03;;
48727;SDS011;34527;45.618;5.130;2022-09-13T09:26:16;3.70;;;2.00;;
48727;SDS011;34527;45.618;5.130;2022-09-13T09:28:43;4.53;;;2.17;;
48727;SDS011;34527;45.618;5.130;2022-09-13T09:36:49;4.78;;;2.22;;
48727;SDS011;34527;45.618;5.130;2022-09-13T09:39:19;5.40;;;2.50;;
48727;SDS011;34527;45.618;5.130;2022-09-13T09:41:45;2.90;;;1.85;;
48727;SDS011;34527;45.618;5.130;2022-09-13T09:46:54;3.15;;;2.05;;
48727;SDS011;34527;45.618;5.130;2022-09-13T09:49:54;4.15;;;2.15;;
48727;SDS011;34527;45.618;5.130;2022-09-13T09:52:44;4.53;;;2.10;;
48727;SDS011;34527;45.618;5.130;2022-09-13T09:58:14;4.53;;;2.25;;
48727;SDS011;34527;45.618;5.130;2022-09-13T10:00:56;3.35;;;1.90;;
48727;SDS011;34527;45.618;5.130;2022-09-13T10:03:29;2.45;;;2.10;;
48727;SDS011;34527;45.618;5.130;2022-09-13T10:08:32;5.82;;;2.00;;
48727;SDS011;34527;45.618;5.130;2022-09-13T10:11:01;7.10;;;2.03;;
48727;SDS011;34527;45.618;5.130;2022-09-13T10:13:28;3.58;;;1.80;;
48727;SDS011;34527;45.618;5.130;2022-09-13T10:15:59;4.18;;;2.10;;
48727;SDS011;34527;45.618;5.130;2022-09-13T10:18:30;2.08;;;1.88;;
48727;SDS011;34527;45.618;5.130;2022-09-13T10:23:26;1.95;;;1.73;;
48727;SDS011;34527;45.618;5.130;2022-09-13T10:26:05;2.60;;;1.80;;
48727;SDS011;34527;45.618;5.130;2022-09-13T10:28:35;3.15;;;1.98;;
48727;SDS011;34527;45.618;5.130;2022-09-13T10:31:19;2.47;;;1.90;;
48727;SDS011;34527;45.618;5.130;2022-09-13T10:33:56;3.35;;;1.95;;
48727;SDS011;34527;45.618;5.130;2022-09-13T10:36:35;3.72;;;1.80;;
48727;SDS011;34527;45.618;5.130;2022-09-13T10:39:06;3.20;;;1.95;;
48727;SDS011;34527;45.618;5.130;2022-09-13T10:41:41;3.92;;;2.05;;
48727;SDS011;34527;45.618;5.130;2022-09-13T10:47:05;2.47;;;2.03;;
48727;SDS011;34527;45.618;5.130;2022-09-13T10:52:23;4.22;;;1.85;;
48727;SDS011;34527;45.618;5.130;2022-09-13T10:54:49;5.40;;;2.55;;
48727;SDS011;34527;45.618;5.130;2022-09-13T10:57:26;4.07;;;2.10;;
48727;SDS011;34527;45.618;5.130;2022-09-13T10:59:53;2.60;;;1.95;;
48727;SDS011;34527;45.618;5.130;2022-09-13T11:05:20;4.05;;;2.05;;
48727;SDS011;34527;45.618;5.130;2022-09-13T11:11:06;4.22;;;1.98;;
48727;SDS011;34527;45.618;5.130;2022-09-13T11:16:31;5.50;;;2.17;;
48727;SDS011;34527;45.618;5.130;2022-09-13T11:24:53;4.50;;;2.05;;
48727;SDS011;34527;45.618;5.130;2022-09-13T11:27:34;5.88;;;2.20;;
48727;SDS011;34527;45.618;5.130;2022-09-13T11:30:14;4.03;;;2.03;;
48727;SDS011;34527;45.618;5.130;2022-09-13T11:46:24;7.32;;;2.13;;
48727;SDS011;34527;45.618;5.130;2022-09-13T11:49:17;2.20;;;1.80;;
48727;SDS011;34527;45.618;5.130;2022-09-13T11:51:55;5.03;;;2.25;;
48727;SDS011;34527;45.618;5.130;2022-09-13T11:56:56;5.15;;;1.92;;
48727;SDS011;34527;45.618;5.130;2022-09-13T12:02:19;6.35;;;2.03;;
48727;SDS011;34527;45.618;5.130;2022-09-13T12:10:06;7.28;;;1.70;;
48727;SDS011;34527;45.618;5.130;2022-09-13T12:12:41;3.75;;;1.90;;
48727;SDS011;34527;45.618;5.130;2022-09-13T12:15:15;3.33;;;1.50;;
48727;SDS011;34527;45.618;5.130;2022-09-13T12:17:44;4.10;;;2.10;;
48727;SDS011;34527;45.618;5.130;2022-09-13T12:20:37;3.67;;;1.63;;
48727;SDS011;34527;45.618;5.130;2022-09-13T12:23:18;3.38;;;1.80;;
48727;SDS011;34527;45.618;5.130;2022-09-13T12:25:51;4.70;;;1.75;;
48727;SDS011;34527;45.618;5.130;2022-09-13T12:28:26;4.20;;;1.90;;
48727;SDS011;34527;45.618;5.130;2022-09-13T12:31:00;4.32;;;2.08;;
48727;SDS011;34527;45.618;5.130;2022-09-13T12:33:31;4.00;;;2.00;;
48727;SDS011;34527;45.618;5.130;2022-09-13T12:52:39;6.20;;;1.60;;
48727;SDS011;34527;45.618;5.130;2022-09-13T13:00:45;5.32;;;2.00;;
48727;SDS011;34527;45.618;5.130;2022-09-13T13:04:09;4.72;;;1.98;;
48727;SDS011;34527;45.618;5.130;2022-09-13T13:06:40;4.45;;;2.60;;
48727;SDS011;34527;45.618;5.130;2022-09-13T13:11:47;4.55;;;2.42;;
48727;SDS011;34527;45.618;5.130;2022-09-13T13:14:28;3.50;;;2.10;;
48727;SDS011;34527;45.618;5.130;2022-09-13T13:16:54;3.72;;;1.95;;
48727;SDS011;34527;45.618;5.130;2022-09-13T13:19:58;3.55;;;2.20;;
48727;SDS011;34527;45.618;5.130;2022-09-13T13:27:54;5.80;;;2.33;;
48727;SDS011;34527;45.618;5.130;2022-09-13T13:30:38;7.72;;;2.33;;
48727;SDS011;34527;45.618;5.130;2022-09-13T13:35:44;3.00;;;1.75;;
48727;SDS011;34527;45.618;5.130;2022-09-13T13:38:52;5.10;;;2.22;;
48727;SDS011;34527;45.618;5.130;2022-09-13T13:41:35;3.22;;;2.00;;
48727;SDS011;34527;45.618;5.130;2022-09-13T13:43:55;7.32;;;2.03;;
48727;SDS011;34527;45.618;5.130;2022-09-13T13:48:48;5.07;;;2.40;;
48727;SDS011;34527;45.618;5.130;2022-09-13T13:51:24;6.85;;;2.20;;
48727;SDS011;34527;45.618;5.130;2022-09-13T13:53:59;3.28;;;1.95;;
48727;SDS011;34527;45.618;5.130;2022-09-13T13:56:31;4.30;;;2.20;;
48727;SDS011;34527;45.618;5.130;2022-09-13T13:59:26;5.60;;;2.30;;
48727;SDS011;34527;45.618;5.130;2022-09-13T14:01:57;6.18;;;2.28;;
48727;SDS011;34527;45.618;5.130;2022-09-13T14:10:13;4.57;;;2.03;;
48727;SDS011;34527;45.618;5.130;2022-09-13T14:13:17;5.78;;;2.35;;
48727;SDS011;34527;45.618;5.130;2022-09-13T14:18:39;5.68;;;1.98;;
48727;SDS011;34527;45.618;5.130;2022-09-13T14:21:31;4.75;;;2.22;;
48727;SDS011;34527;45.618;5.130;2022-09-13T14:29:22;7.45;;;2.63;;
48727;SDS011;34527;45.618;5.130;2022-09-13T14:31:54;3.10;;;2.22;;
48727;SDS011;34527;45.618;5.130;2022-09-13T14:34:35;3.97;;;1.88;;
48727;SDS011;34527;45.618;5.130;2022-09-13T14:37:17;5.22;;;2.13;;
48727;SDS011;34527;45.618;5.130;2022-09-13T14:42:44;2.88;;;1.80;;
48727;SDS011;34527;45.618;5.130;2022-09-13T14:45:12;4.82;;;1.80;;
48727;SDS011;34527;45.618;5.130;2022-09-13T14:47:45;6.68;;;1.90;;
48727;SDS011;34527;45.618;5.130;2022-09-13T14:50:23;3.78;;;2.17;;
48727;SDS011;34527;45.618;5.130;2022-09-13T14:53:02;5.32;;;2.03;;
48727;SDS011;34527;45.618;5.130;2022-09-13T14:55:39;3.92;;;1.80;;
48727;SDS011;34527;45.618;5.130;2022-09-13T14:58:16;3.83;;;2.08;;
48727;SDS011;34527;45.618;5.130;2022-09-13T15:00:54;5.95;;;2.03;;
48727;SDS011;34527;45.618;5.130;2022-09-13T15:03:21;6.82;;;1.65;;
48727;SDS011;34527;45.618;5.130;2022-09-13T15:05:52;5.68;;;2.00;;
48727;SDS011;34527;45.618;5.130;2022-09-13T15:10:59;5.90;;;1.90;;
48727;SDS011;34527;45.618;5.130;2022-09-13T15:13:26;11.80;;;2.22;;
48727;SDS011;34527;45.618;5.130;2022-09-13T15:15:53;3.78;;;2.15;;
48727;SDS011;34527;45.618;5.130;2022-09-13T15:23:47;4.03;;;1.90;;
48727;SDS011;34527;45.618;5.130;2022-09-13T15:26:24;4.05;;;2.00;;
48727;SDS011;34527;45.618;5.130;2022-09-13T15:28:52;4.60;;;1.70;;
48727;SDS011;34527;45.618;5.130;2022-09-13T15:31:21;7.15;;;2.20;;
48727;SDS011;34527;45.618;5.130;2022-09-13T15:36:41;4.35;;;1.90;;
48727;SDS011;34527;45.618;5.130;2022-09-13T15:41:34;3.00;;;1.90;;
48727;SDS011;34527;45.618;5.130;2022-09-13T15:44:02;7.07;;;2.08;;
48727;SDS011;34527;45.618;5.130;2022-09-13T15:46:30;4.95;;;1.83;;
48727;SDS011;34527;45.618;5.130;2022-09-13T15:48:57;2.78;;;1.92;;
48727;SDS011;34527;45.618;5.130;2022-09-13T15:51:26;3.33;;;2.00;;
48727;SDS011;34527;45.618;5.130;2022-09-13T15:53:52;4.63;;;1.80;;
48727;SDS011;34527;45.618;5.130;2022-09-13T15:56:25;3.13;;;1.95;;
48727;SDS011;34527;45.618;5.130;2022-09-13T15:58:56;4.32;;;1.60;;
48727;SDS011;34527;45.618;5.130;2022-09-13T16:01:22;3.15;;;2.10;;
48727;SDS011;34527;45.618;5.130;2022-09-13T16:03:48;4.32;;;1.75;;
48727;SDS011;34527;45.618;5.130;2022-09-13T16:06:14;3.75;;;1.80;;
48727;SDS011;34527;45.618;5.130;2022-09-13T16:08:40;4.32;;;1.92;;
48727;SDS011;34527;45.618;5.130;2022-09-13T16:11:06;1.92;;;1.80;;
48727;SDS011;34527;45.618;5.130;2022-09-13T16:13:32;2.17;;;1.70;;
48727;SDS011;34527;45.618;5.130;2022-09-13T16:15:58;3.10;;;2.17;;
48727;SDS011;34527;45.618;5.130;2022-09-13T16:18:24;5.53;;;2.40;;
48727;SDS011;34527;45.618;5.130;2022-09-13T16:20:50;4.80;;;1.88;;
48727;SDS011;34527;45.618;5.130;2022-09-13T16:23:16;2.00;;;1.80;;
48727;SDS011;34527;45.618;5.130;2022-09-13T16:25:42;4.03;;;1.65;;
48727;SDS011;34527;45.618;5.130;2022-09-13T16:28:11;3.42;;;1.80;;
48727;SDS011;34527;45.618;5.130;2022-09-13T16:30:42;2.47;;;1.90;;
48727;SDS011;34527;45.618;5.130;2022-09-13T16:33:08;4.35;;;1.77;;
48727;SDS011;34527;45.618;5.130;2022-09-13T16:35:33;2.20;;;2.00;;
48727;SDS011;34527;45.618;5.130;2022-09-13T16:37:59;3.00;;;2.10;;
48727;SDS011;34527;45.618;5.130;2022-09-13T16:40:25;4.40;;;1.90;;
48727;SDS011;34527;45.618;5.130;2022-09-13T16:42:51;3.10;;;1.80;;
48727;SDS011;34527;45.618;5.130;2022-09-13T16:45:18;2.55;;;1.90;;
48727;SDS011;34527;45.618;5.130;2022-09-13T16:47:44;4.85;;;2.00;;
48727;SDS011;34527;45.618;5.130;2022-09-13T16:50:10;4.30;;;2.08;;
48727;SDS011;34527;45.618;5.130;2022-09-13T16:52:36;3.33;;;1.75;;
48727;SDS011;34527;45.618;5.130;2022-09-13T16:55:03;3.13;;;1.60;;
48727;SDS011;34527;45.618;5.130;2022-09-13T16:57:30;4.97;;;2.00;;
48727;SDS011;34527;45.618;5.130;2022-09-13T16:59:56;6.05;;;2.10;;
48727;SDS011;34527;45.618;5.130;2022-09-13T17:02:23;2.88;;;1.90;;
48727;SDS011;34527;45.618;5.130;2022-09-13T17:04:50;2.50;;;1.90;;
48727;SDS011;34527;45.618;5.130;2022-09-13T17:07:16;3.13;;;1.90;;
48727;SDS011;34527;45.618;5.130;2022-09-13T17:09:43;2.97;;;2.05;;
48727;SDS011;34527;45.618;5.130;2022-09-13T17:12:10;3.28;;;2.10;;
48727;SDS011;34527;45.618;5.130;2022-09-13T17:14:38;3.05;;;2.00;;
48727;SDS011;34527;45.618;5.130;2022-09-13T17:17:07;2.70;;;1.90;;
48727;SDS011;34527;45.618;5.130;2022-09-13T17:19:33;4.40;;;2.22;;
48727;SDS011;34527;45.618;5.130;2022-09-13T17:22:00;3.22;;;2.10;;
48727;SDS011;34527;45.618;5.130;2022-09-13T17:24:28;3.78;;;2.38;;
48727;SDS011;34527;45.618;5.130;2022-09-13T17:26:56;5.28;;;2.17;;
48727;SDS011;34527;45.618;5.130;2022-09-13T17:29:22;6.28;;;2.22;;
48727;SDS011;34527;45.618;5.130;2022-09-13T17:31:50;5.75;;;2.25;;
48727;SDS011;34527;45.618;5.130;2022-09-13T17:34:16;3.83;;;2.00;;
48727;SDS011;34527;45.618;5.130;2022-09-13T17:36:43;3.45;;;2.15;;
48727;SDS011;34527;45.618;5.130;2022-09-13T17:39:09;3.30;;;2.30;;
48727;SDS011;34527;45.618;5.130;2022-09-13T17:41:36;2.55;;;2.30;;
48727;SDS011;34527;45.618;5.130;2022-09-13T17:44:02;3.83;;;2.10;;
48727;SDS011;34527;45.618;5.130;2022-09-13T17:46:28;3.03;;;2.30;;
48727;SDS011;34527;45.618;5.130;2022-09-13T17:48:55;5.85;;;2.60;;
48727;SDS011;34527;45.618;5.130;2022-09-13T17:51:23;3.03;;;2.28;;
48727;SDS011;34527;45.618;5.130;2022-09-13T17:53:54;5.07;;;2.30;;
48727;SDS011;34527;45.618;5.130;2022-09-13T17:56:39;5.18;;;2.30;;
48727;SDS011;34527;45.618;5.130;2022-09-13T17:59:13;6.20;;;2.40;;
48727;SDS011;34527;45.618;5.130;2022-09-13T18:01:42;5.03;;;2.40;;
48727;SDS011;34527;45.618;5.130;2022-09-13T18:04:10;3.60;;;2.40;;
48727;SDS011;34527;45.618;5.130;2022-09-13T18:06:37;3.30;;;2.50;;
48727;SDS011;34527;45.618;5.130;2022-09-13T18:09:10;4.20;;;2.40;;
48727;SDS011;34527;45.618;5.130;2022-09-13T18:11:38;4.95;;;2.00;;
48727;SDS011;34527;45.618;5.130;2022-09-13T18:14:05;3.40;;;2.35;;
48727;SDS011;34527;45.618;5.130;2022-09-13T18:16:31;4.63;;;2.10;;
48727;SDS011;34527;45.618;5.130;2022-09-13T18:18:58;2.55;;;2.30;;
48727;SDS011;34527;45.618;5.130;2022-09-13T18:21:24;2.55;;;2.33;;
48727;SDS011;34527;45.618;5.130;2022-09-13T18:23:52;3.33;;;2.13;;
48727;SDS011;34527;45.618;5.130;2022-09-13T18:26:20;6.65;;;2.33;;
48727;SDS011;34527;45.618;5.130;2022-09-13T18:28:51;2.85;;;2.30;;
48727;SDS011;34527;45.618;5.130;2022-09-13T18:31:20;2.50;;;2.30;;
48727;SDS011;34527;45.618;5.130;2022-09-13T18:33:47;2.55;;;2.35;;